sensor_id;sensor_type;location;lat;lon;timestamp;P1;durP1;ratioP1;P2;durP2;ratioP2
49103;SDS011;34915;52.926;11.116;2022-09-09T00:03:32;13.50;;;8.27;;
49103;SDS011;34915;52.926;11.116;2022-09-09T00:14:11;13.07;;;8.63;;
49103;SDS011;34915;52.926;11.116;2022-09-09T00:16:58;15.47;;;8.07;;
49103;SDS011;34915;52.926;11.116;2022-09-09T00:22:17;9.63;;;7.20;;
49103;SDS011;34915;52.926;11.116;2022-09-09T00:24:46;15.70;;;7.63;;
49103;SDS011;34915;52.926;11.116;2022-09-09T00:27:31;12.03;;;7.10;;
49103;SDS011;34915;52.926;11.116;2022-09-09T00:32:48;14.17;;;7.10;;
49103;SDS011;34915;52.926;11.116;2022-09-09T00:38:05;11.17;;;7.57;;
49103;SDS011;34915;52.926;11.116;2022-09-09T00:40:45;9.00;;;7.07;;
49103;SDS011;34915;52.926;11.116;2022-09-09T00:43:31;9.67;;;7.47;;
49103;SDS011;34915;52.926;11.116;2022-09-09T00:49:04;11.23;;;7.87;;
49103;SDS011;34915;52.926;11.116;2022-09-09T00:57:40;8.93;;;6.87;;
49103;SDS011;34915;52.926;11.116;2022-09-09T01:03:31;10.07;;;7.13;;
49103;SDS011;34915;52.926;11.116;2022-09-09T01:14:27;13.23;;;7.57;;
49103;SDS011;34915;52.926;11.116;2022-09-09T01:27:54;11.00;;;6.97;;
49103;SDS011;34915;52.926;11.116;2022-09-09T01:30:24;11.50;;;6.50;;
49103;SDS011;34915;52.926;11.116;2022-09-09T01:32:51;14.00;;;7.63;;
49103;SDS011;34915;52.926;11.116;2022-09-09T01:38:10;9.17;;;6.77;;
49103;SDS011;34915;52.926;11.116;2022-09-09T01:40:36;12.93;;;7.47;;
49103;SDS011;34915;52.926;11.116;2022-09-09T01:43:02;10.63;;;7.30;;
49103;SDS011;34915;52.926;11.116;2022-09-09T01:45:28;11.97;;;7.90;;
49103;SDS011;34915;52.926;11.116;2022-09-09T01:47:55;15.63;;;7.77;;
49103;SDS011;34915;52.926;11.116;2022-09-09T01:50:21;15.60;;;8.27;;
49103;SDS011;34915;52.926;11.116;2022-09-09T01:52:49;14.00;;;7.87;;
49103;SDS011;34915;52.926;11.116;2022-09-09T01:55:20;12.27;;;8.23;;
49103;SDS011;34915;52.926;11.116;2022-09-09T02:00:23;12.03;;;6.97;;
49103;SDS011;34915;52.926;11.116;2022-09-09T02:08:59;7.80;;;6.17;;
49103;SDS011;34915;52.926;11.116;2022-09-09T02:11:28;12.33;;;6.10;;
49103;SDS011;34915;52.926;11.116;2022-09-09T02:14:00;9.80;;;7.33;;
49103;SDS011;34915;52.926;11.116;2022-09-09T02:16:30;13.03;;;6.60;;
49103;SDS011;34915;52.926;11.116;2022-09-09T02:21:42;9.70;;;6.87;;
49103;SDS011;34915;52.926;11.116;2022-09-09T02:24:10;11.67;;;7.00;;
49103;SDS011;34915;52.926;11.116;2022-09-09T02:26:41;10.10;;;6.30;;
49103;SDS011;34915;52.926;11.116;2022-09-09T02:29:12;8.30;;;6.33;;
49103;SDS011;34915;52.926;11.116;2022-09-09T02:31:41;9.40;;;6.20;;
49103;SDS011;34915;52.926;11.116;2022-09-09T02:34:10;7.87;;;5.73;;
49103;SDS011;34915;52.926;11.116;2022-09-09T02:36:39;12.97;;;6.80;;
49103;SDS011;34915;52.926;11.116;2022-09-09T02:39:08;10.37;;;5.90;;
49103;SDS011;34915;52.926;11.116;2022-09-09T02:41:37;10.73;;;5.43;;
49103;SDS011;34915;52.926;11.116;2022-09-09T02:44:05;7.07;;;5.00;;
49103;SDS011;34915;52.926;11.116;2022-09-09T02:49:10;9.10;;;5.30;;
49103;SDS011;34915;52.926;11.116;2022-09-09T02:54:28;7.23;;;5.20;;
49103;SDS011;34915;52.926;11.116;2022-09-09T02:56:58;6.27;;;4.93;;
49103;SDS011;34915;52.926;11.116;2022-09-09T02:59:31;7.37;;;5.20;;
49103;SDS011;34915;52.926;11.116;2022-09-09T03:01:57;6.07;;;5.07;;
49103;SDS011;34915;52.926;11.116;2022-09-09T03:04:25;7.70;;;5.37;;
49103;SDS011;34915;52.926;11.116;2022-09-09T03:06:50;6.67;;;4.80;;
49103;SDS011;34915;52.926;11.116;2022-09-09T03:09:16;7.70;;;5.00;;
49103;SDS011;34915;52.926;11.116;2022-09-09T03:11:42;5.87;;;4.67;;
49103;SDS011;34915;52.926;11.116;2022-09-09T03:14:10;6.07;;;4.80;;
49103;SDS011;34915;52.926;11.116;2022-09-09T03:16:36;7.50;;;5.33;;
49103;SDS011;34915;52.926;11.116;2022-09-09T03:19:02;7.43;;;4.77;;
49103;SDS011;34915;52.926;11.116;2022-09-09T03:21:28;10.10;;;4.40;;
49103;SDS011;34915;52.926;11.116;2022-09-09T03:23:54;6.83;;;5.30;;
49103;SDS011;34915;52.926;11.116;2022-09-09T03:26:19;5.47;;;4.57;;
49103;SDS011;34915;52.926;11.116;2022-09-09T03:28:45;8.80;;;4.70;;
49103;SDS011;34915;52.926;11.116;2022-09-09T03:31:11;5.80;;;4.53;;
49103;SDS011;34915;52.926;11.116;2022-09-09T03:33:37;7.17;;;4.73;;
49103;SDS011;34915;52.926;11.116;2022-09-09T03:36:03;5.47;;;4.90;;
49103;SDS011;34915;52.926;11.116;2022-09-09T03:38:31;6.80;;;5.30;;
49103;SDS011;34915;52.926;11.116;2022-09-09T03:40:57;7.50;;;5.93;;
49103;SDS011;34915;52.926;11.116;2022-09-09T03:43:23;12.40;;;6.83;;
49103;SDS011;34915;52.926;11.116;2022-09-09T03:45:50;8.37;;;5.87;;
49103;SDS011;34915;52.926;11.116;2022-09-09T03:48:16;7.63;;;5.47;;
49103;SDS011;34915;52.926;11.116;2022-09-09T03:50:49;6.33;;;4.70;;
49103;SDS011;34915;52.926;11.116;2022-09-09T03:53:17;6.43;;;5.17;;
49103;SDS011;34915;52.926;11.116;2022-09-09T03:55:47;8.27;;;5.17;;
49103;SDS011;34915;52.926;11.116;2022-09-09T03:58:16;8.20;;;5.43;;
49103;SDS011;34915;52.926;11.116;2022-09-09T04:00:52;7.43;;;5.47;;
49103;SDS011;34915;52.926;11.116;2022-09-09T04:03:19;7.07;;;5.87;;
49103;SDS011;34915;52.926;11.116;2022-09-09T04:05:44;7.73;;;5.37;;
49103;SDS011;34915;52.926;11.116;2022-09-09T04:08:10;6.50;;;4.70;;
49103;SDS011;34915;52.926;11.116;2022-09-09T04:10:36;10.97;;;5.13;;
49103;SDS011;34915;52.926;11.116;2022-09-09T04:13:03;7.20;;;5.00;;
49103;SDS011;34915;52.926;11.116;2022-09-09T04:15:30;5.80;;;4.53;;
49103;SDS011;34915;52.926;11.116;2022-09-09T04:17:56;6.43;;;4.67;;
49103;SDS011;34915;52.926;11.116;2022-09-09T04:20:21;6.33;;;4.30;;
49103;SDS011;34915;52.926;11.116;2022-09-09T04:22:47;9.43;;;5.13;;
49103;SDS011;34915;52.926;11.116;2022-09-09T04:25:13;6.50;;;5.43;;
49103;SDS011;34915;52.926;11.116;2022-09-09T04:27:39;6.47;;;4.80;;
49103;SDS011;34915;52.926;11.116;2022-09-09T04:30:05;5.50;;;4.37;;
49103;SDS011;34915;52.926;11.116;2022-09-09T04:32:33;8.13;;;5.53;;
49103;SDS011;34915;52.926;11.116;2022-09-09T04:34:59;8.10;;;4.70;;
49103;SDS011;34915;52.926;11.116;2022-09-09T04:37:25;8.63;;;5.43;;
49103;SDS011;34915;52.926;11.116;2022-09-09T04:39:51;7.03;;;5.60;;
49103;SDS011;34915;52.926;11.116;2022-09-09T04:42:16;7.17;;;5.57;;
49103;SDS011;34915;52.926;11.116;2022-09-09T04:44:44;9.87;;;5.43;;
49103;SDS011;34915;52.926;11.116;2022-09-09T04:47:10;10.33;;;6.30;;
49103;SDS011;34915;52.926;11.116;2022-09-09T04:49:36;9.60;;;5.70;;
49103;SDS011;34915;52.926;11.116;2022-09-09T04:52:02;9.37;;;5.47;;
49103;SDS011;34915;52.926;11.116;2022-09-09T04:54:28;7.73;;;5.83;;
49103;SDS011;34915;52.926;11.116;2022-09-09T04:56:54;12.13;;;6.13;;
49103;SDS011;34915;52.926;11.116;2022-09-09T04:59:20;8.40;;;5.90;;
49103;SDS011;34915;52.926;11.116;2022-09-09T05:01:47;8.67;;;6.30;;
49103;SDS011;34915;52.926;11.116;2022-09-09T05:04:15;11.07;;;6.00;;
49103;SDS011;34915;52.926;11.116;2022-09-09T05:06:41;7.63;;;5.53;;
49103;SDS011;34915;52.926;11.116;2022-09-09T05:09:07;7.70;;;5.70;;
49103;SDS011;34915;52.926;11.116;2022-09-09T05:11:34;7.20;;;5.30;;
49103;SDS011;34915;52.926;11.116;2022-09-09T05:14:03;9.17;;;4.20;;
49103;SDS011;34915;52.926;11.116;2022-09-09T05:16:29;10.07;;;6.03;;
49103;SDS011;34915;52.926;11.116;2022-09-09T05:18:55;8.30;;;4.70;;
49103;SDS011;34915;52.926;11.116;2022-09-09T05:21:22;5.20;;;4.00;;
49103;SDS011;34915;52.926;11.116;2022-09-09T05:23:49;5.77;;;4.43;;
49103;SDS011;34915;52.926;11.116;2022-09-09T05:26:20;7.27;;;4.83;;
49103;SDS011;34915;52.926;11.116;2022-09-09T05:28:47;8.67;;;5.73;;
49103;SDS011;34915;52.926;11.116;2022-09-09T05:31:13;6.97;;;5.53;;
49103;SDS011;34915;52.926;11.116;2022-09-09T05:33:41;6.63;;;4.97;;
49103;SDS011;34915;52.926;11.116;2022-09-09T05:36:09;7.33;;;5.33;;
49103;SDS011;34915;52.926;11.116;2022-09-09T05:38:38;7.87;;;5.00;;
49103;SDS011;34915;52.926;11.116;2022-09-09T05:41:05;7.50;;;5.03;;
49103;SDS011;34915;52.926;11.116;2022-09-09T05:43:32;8.87;;;5.70;;
49103;SDS011;34915;52.926;11.116;2022-09-09T05:46:07;10.23;;;5.30;;
49103;SDS011;34915;52.926;11.116;2022-09-09T05:48:36;6.97;;;5.67;;
49103;SDS011;34915;52.926;11.116;2022-09-09T05:51:06;6.10;;;5.17;;
49103;SDS011;34915;52.926;11.116;2022-09-09T05:53:34;11.23;;;5.63;;
49103;SDS011;34915;52.926;11.116;2022-09-09T05:56:04;9.30;;;5.80;;
49103;SDS011;34915;52.926;11.116;2022-09-09T05:58:31;9.27;;;5.77;;
49103;SDS011;34915;52.926;11.116;2022-09-09T06:03:37;6.30;;;5.27;;
49103;SDS011;34915;52.926;11.116;2022-09-09T06:06:05;6.83;;;5.43;;
49103;SDS011;34915;52.926;11.116;2022-09-09T06:08:37;7.67;;;5.77;;
49103;SDS011;34915;52.926;11.116;2022-09-09T06:11:05;10.33;;;6.17;;
49103;SDS011;34915;52.926;11.116;2022-09-09T06:13:34;6.50;;;5.40;;
49103;SDS011;34915;52.926;11.116;2022-09-09T06:16:02;6.87;;;5.13;;
49103;SDS011;34915;52.926;11.116;2022-09-09T06:18:29;6.93;;;4.97;;
49103;SDS011;34915;52.926;11.116;2022-09-09T06:20:55;6.83;;;5.03;;
49103;SDS011;34915;52.926;11.116;2022-09-09T06:23:24;5.00;;;4.50;;
49103;SDS011;34915;52.926;11.116;2022-09-09T06:25:50;5.67;;;5.07;;
49103;SDS011;34915;52.926;11.116;2022-09-09T06:28:17;5.27;;;4.30;;
49103;SDS011;34915;52.926;11.116;2022-09-09T06:30:44;9.23;;;4.90;;
49103;SDS011;34915;52.926;11.116;2022-09-09T06:33:10;5.33;;;4.33;;
49103;SDS011;34915;52.926;11.116;2022-09-09T06:35:35;5.33;;;4.40;;
49103;SDS011;34915;52.926;11.116;2022-09-09T06:38:01;4.67;;;3.63;;
49103;SDS011;34915;52.926;11.116;2022-09-09T06:40:26;7.23;;;4.07;;
49103;SDS011;34915;52.926;11.116;2022-09-09T06:42:52;9.57;;;3.97;;
49103;SDS011;34915;52.926;11.116;2022-09-09T06:45:18;4.37;;;3.97;;
49103;SDS011;34915;52.926;11.116;2022-09-09T06:47:44;4.97;;;4.20;;
49103;SDS011;34915;52.926;11.116;2022-09-09T06:50:09;5.27;;;4.10;;
49103;SDS011;34915;52.926;11.116;2022-09-09T06:52:36;4.00;;;3.53;;
49103;SDS011;34915;52.926;11.116;2022-09-09T06:55:02;4.30;;;3.73;;
49103;SDS011;34915;52.926;11.116;2022-09-09T06:57:28;7.60;;;3.70;;
49103;SDS011;34915;52.926;11.116;2022-09-09T06:59:54;4.93;;;3.90;;
49103;SDS011;34915;52.926;11.116;2022-09-09T07:02:22;4.77;;;3.63;;
49103;SDS011;34915;52.926;11.116;2022-09-09T07:04:47;5.50;;;3.40;;
49103;SDS011;34915;52.926;11.116;2022-09-09T07:07:16;5.27;;;3.60;;
49103;SDS011;34915;52.926;11.116;2022-09-09T07:09:43;6.47;;;3.57;;
49103;SDS011;34915;52.926;11.116;2022-09-09T07:12:08;5.73;;;3.33;;
49103;SDS011;34915;52.926;11.116;2022-09-09T07:14:34;5.30;;;3.60;;
49103;SDS011;34915;52.926;11.116;2022-09-09T07:17:02;4.30;;;3.80;;
49103;SDS011;34915;52.926;11.116;2022-09-09T07:19:30;4.87;;;3.37;;
49103;SDS011;34915;52.926;11.116;2022-09-09T07:21:55;10.77;;;3.20;;
49103;SDS011;34915;52.926;11.116;2022-09-09T07:24:21;4.10;;;3.40;;
49103;SDS011;34915;52.926;11.116;2022-09-09T07:26:47;4.70;;;3.13;;
49103;SDS011;34915;52.926;11.116;2022-09-09T07:29:12;4.00;;;3.33;;
49103;SDS011;34915;52.926;11.116;2022-09-09T07:31:41;5.07;;;3.17;;
49103;SDS011;34915;52.926;11.116;2022-09-09T07:34:08;6.27;;;3.60;;
49103;SDS011;34915;52.926;11.116;2022-09-09T07:36:34;5.07;;;3.50;;
49103;SDS011;34915;52.926;11.116;2022-09-09T07:39:04;7.00;;;3.30;;
49103;SDS011;34915;52.926;11.116;2022-09-09T07:43:59;8.57;;;3.70;;
49103;SDS011;34915;52.926;11.116;2022-09-09T07:46:30;6.20;;;3.37;;
49103;SDS011;34915;52.926;11.116;2022-09-09T07:48:56;6.20;;;3.50;;
49103;SDS011;34915;52.926;11.116;2022-09-09T07:51:23;5.83;;;3.37;;
49103;SDS011;34915;52.926;11.116;2022-09-09T07:53:58;5.30;;;3.50;;
49103;SDS011;34915;52.926;11.116;2022-09-09T07:56:27;3.93;;;3.47;;
49103;SDS011;34915;52.926;11.116;2022-09-09T07:58:54;6.47;;;3.37;;
49103;SDS011;34915;52.926;11.116;2022-09-09T08:03:53;4.30;;;3.30;;
49103;SDS011;34915;52.926;11.116;2022-09-09T08:06:31;6.90;;;2.93;;
49103;SDS011;34915;52.926;11.116;2022-09-09T08:09:00;4.43;;;2.93;;
49103;SDS011;34915;52.926;11.116;2022-09-09T08:11:29;3.67;;;3.10;;
49103;SDS011;34915;52.926;11.116;2022-09-09T08:13:55;7.50;;;3.33;;
49103;SDS011;34915;52.926;11.116;2022-09-09T08:16:26;8.40;;;3.60;;
49103;SDS011;34915;52.926;11.116;2022-09-09T08:18:54;4.17;;;2.83;;
49103;SDS011;34915;52.926;11.116;2022-09-09T08:21:21;4.13;;;3.07;;
49103;SDS011;34915;52.926;11.116;2022-09-09T08:23:50;5.93;;;3.23;;
49103;SDS011;34915;52.926;11.116;2022-09-09T08:26:19;4.90;;;3.27;;
49103;SDS011;34915;52.926;11.116;2022-09-09T08:28:49;2.90;;;2.60;;
49103;SDS011;34915;52.926;11.116;2022-09-09T08:31:17;5.10;;;3.73;;
49103;SDS011;34915;52.926;11.116;2022-09-09T08:33:48;5.70;;;3.70;;
49103;SDS011;34915;52.926;11.116;2022-09-09T08:36:16;6.57;;;2.60;;
49103;SDS011;34915;52.926;11.116;2022-09-09T08:38:43;8.33;;;3.20;;
49103;SDS011;34915;52.926;11.116;2022-09-09T08:44:26;3.60;;;2.73;;
49103;SDS011;34915;52.926;11.116;2022-09-09T08:49:38;4.00;;;2.57;;
49103;SDS011;34915;52.926;11.116;2022-09-09T08:54:59;3.53;;;3.00;;
49103;SDS011;34915;52.926;11.116;2022-09-09T08:57:38;4.67;;;3.30;;
49103;SDS011;34915;52.926;11.116;2022-09-09T09:00:04;5.70;;;2.77;;
49103;SDS011;34915;52.926;11.116;2022-09-09T09:10:48;4.67;;;2.80;;
49103;SDS011;34915;52.926;11.116;2022-09-09T09:13:20;3.10;;;2.50;;
49103;SDS011;34915;52.926;11.116;2022-09-09T09:15:55;4.50;;;2.53;;
49103;SDS011;34915;52.926;11.116;2022-09-09T09:18:29;3.13;;;2.10;;
49103;SDS011;34915;52.926;11.116;2022-09-09T09:21:07;8.10;;;1.87;;
49103;SDS011;34915;52.926;11.116;2022-09-09T09:23:46;6.13;;;2.30;;
49103;SDS011;34915;52.926;11.116;2022-09-09T09:26:19;2.60;;;1.80;;
49103;SDS011;34915;52.926;11.116;2022-09-09T09:28:49;4.87;;;2.50;;
49103;SDS011;34915;52.926;11.116;2022-09-09T09:31:17;3.27;;;2.30;;
49103;SDS011;34915;52.926;11.116;2022-09-09T09:33:49;2.67;;;2.00;;
49103;SDS011;34915;52.926;11.116;2022-09-09T09:36:18;3.77;;;1.87;;
49103;SDS011;34915;52.926;11.116;2022-09-09T09:39:21;2.70;;;1.57;;
49103;SDS011;34915;52.926;11.116;2022-09-09T09:41:47;2.20;;;1.43;;
49103;SDS011;34915;52.926;11.116;2022-09-09T09:44:23;2.87;;;1.70;;
49103;SDS011;34915;52.926;11.116;2022-09-09T09:46:51;2.90;;;1.90;;
49103;SDS011;34915;52.926;11.116;2022-09-09T09:49:17;3.63;;;1.70;;
49103;SDS011;34915;52.926;11.116;2022-09-09T09:51:43;4.43;;;2.00;;
49103;SDS011;34915;52.926;11.116;2022-09-09T09:54:14;3.27;;;1.47;;
49103;SDS011;34915;52.926;11.116;2022-09-09T09:56:46;2.90;;;1.50;;
49103;SDS011;34915;52.926;11.116;2022-09-09T09:59:46;1.53;;;1.43;;
49103;SDS011;34915;52.926;11.116;2022-09-09T10:04:45;2.67;;;1.73;;
49103;SDS011;34915;52.926;11.116;2022-09-09T10:07:12;3.30;;;1.63;;
49103;SDS011;34915;52.926;11.116;2022-09-09T10:09:42;2.03;;;1.50;;
49103;SDS011;34915;52.926;11.116;2022-09-09T10:23:36;3.20;;;1.90;;
49103;SDS011;34915;52.926;11.116;2022-09-09T10:31:47;3.70;;;2.60;;
49103;SDS011;34915;52.926;11.116;2022-09-09T10:37:01;2.47;;;2.20;;
49103;SDS011;34915;52.926;11.116;2022-09-09T10:39:40;6.33;;;2.57;;
49103;SDS011;34915;52.926;11.116;2022-09-09T10:42:07;4.17;;;2.67;;
49103;SDS011;34915;52.926;11.116;2022-09-09T10:55:44;5.53;;;2.07;;
49103;SDS011;34915;52.926;11.116;2022-09-09T10:58:21;4.40;;;2.37;;
49103;SDS011;34915;52.926;11.116;2022-09-09T11:01:17;2.97;;;2.07;;
49103;SDS011;34915;52.926;11.116;2022-09-09T11:03:49;3.97;;;2.30;;
49103;SDS011;34915;52.926;11.116;2022-09-09T11:06:21;1.63;;;1.53;;
49103;SDS011;34915;52.926;11.116;2022-09-09T11:08:53;2.30;;;1.70;;
49103;SDS011;34915;52.926;11.116;2022-09-09T11:11:34;2.77;;;1.87;;
49103;SDS011;34915;52.926;11.116;2022-09-09T11:19:34;2.50;;;1.90;;
49103;SDS011;34915;52.926;11.116;2022-09-09T11:22:01;3.07;;;2.23;;
49103;SDS011;34915;52.926;11.116;2022-09-09T11:33:13;2.27;;;1.47;;
49103;SDS011;34915;52.926;11.116;2022-09-09T11:38:25;3.60;;;1.43;;
49103;SDS011;34915;52.926;11.116;2022-09-09T11:40:56;2.37;;;1.53;;
49103;SDS011;34915;52.926;11.116;2022-09-09T11:43:26;2.27;;;1.33;;
49103;SDS011;34915;52.926;11.116;2022-09-09T11:45:57;1.93;;;1.60;;
49103;SDS011;34915;52.926;11.116;2022-09-09T11:48:26;2.37;;;1.30;;
49103;SDS011;34915;52.926;11.116;2022-09-09T11:50:57;5.00;;;1.53;;
49103;SDS011;34915;52.926;11.116;2022-09-09T11:53:25;4.63;;;1.33;;
49103;SDS011;34915;52.926;11.116;2022-09-09T11:56:02;4.67;;;1.20;;
49103;SDS011;34915;52.926;11.116;2022-09-09T11:58:35;3.97;;;1.70;;
49103;SDS011;34915;52.926;11.116;2022-09-09T12:11:45;5.17;;;1.50;;
49103;SDS011;34915;52.926;11.116;2022-09-09T12:14:21;4.07;;;1.17;;
49103;SDS011;34915;52.926;11.116;2022-09-09T12:16:48;2.03;;;1.20;;
49103;SDS011;34915;52.926;11.116;2022-09-09T12:19:14;3.73;;;1.17;;
49103;SDS011;34915;52.926;11.116;2022-09-09T12:21:54;3.37;;;1.23;;
49103;SDS011;34915;52.926;11.116;2022-09-09T12:29:50;4.00;;;1.27;;
49103;SDS011;34915;52.926;11.116;2022-09-09T12:32:25;4.43;;;1.30;;
49103;SDS011;34915;52.926;11.116;2022-09-09T12:34:53;5.07;;;1.20;;
49103;SDS011;34915;52.926;11.116;2022-09-09T12:37:41;1.13;;;0.90;;
49103;SDS011;34915;52.926;11.116;2022-09-09T12:42:44;2.50;;;1.10;;
49103;SDS011;34915;52.926;11.116;2022-09-09T12:45:19;1.43;;;1.13;;
49103;SDS011;34915;52.926;11.116;2022-09-09T12:47:57;2.67;;;1.10;;
49103;SDS011;34915;52.926;11.116;2022-09-09T12:50:32;1.83;;;1.13;;
49103;SDS011;34915;52.926;11.116;2022-09-09T12:53:07;3.70;;;0.93;;
49103;SDS011;34915;52.926;11.116;2022-09-09T12:55:36;2.17;;;0.80;;
49103;SDS011;34915;52.926;11.116;2022-09-09T12:58:04;2.13;;;0.97;;
49103;SDS011;34915;52.926;11.116;2022-09-09T13:00:31;0.80;;;0.80;;
49103;SDS011;34915;52.926;11.116;2022-09-09T13:02:59;3.40;;;1.00;;
49103;SDS011;34915;52.926;11.116;2022-09-09T13:05:36;2.77;;;1.10;;
49103;SDS011;34915;52.926;11.116;2022-09-09T13:08:10;3.87;;;1.00;;
49103;SDS011;34915;52.926;11.116;2022-09-09T13:10:43;3.03;;;0.90;;
49103;SDS011;34915;52.926;11.116;2022-09-09T13:13:23;4.00;;;1.40;;
49103;SDS011;34915;52.926;11.116;2022-09-09T13:15:52;2.17;;;0.90;;
49103;SDS011;34915;52.926;11.116;2022-09-09T13:18:24;2.53;;;1.23;;
49103;SDS011;34915;52.926;11.116;2022-09-09T13:21:01;2.40;;;0.77;;
49103;SDS011;34915;52.926;11.116;2022-09-09T13:23:28;2.60;;;1.03;;
49103;SDS011;34915;52.926;11.116;2022-09-09T13:25:57;2.37;;;1.30;;
49103;SDS011;34915;52.926;11.116;2022-09-09T13:28:25;2.87;;;1.27;;
49103;SDS011;34915;52.926;11.116;2022-09-09T13:30:59;6.77;;;1.30;;
49103;SDS011;34915;52.926;11.116;2022-09-09T13:33:44;3.53;;;1.00;;
49103;SDS011;34915;52.926;11.116;2022-09-09T13:36:11;3.70;;;0.90;;
49103;SDS011;34915;52.926;11.116;2022-09-09T13:41:19;7.50;;;1.23;;
49103;SDS011;34915;52.926;11.116;2022-09-09T13:43:56;5.43;;;1.30;;
49103;SDS011;34915;52.926;11.116;2022-09-09T13:51:36;4.20;;;1.23;;
49103;SDS011;34915;52.926;11.116;2022-09-09T13:54:06;6.00;;;1.53;;
49103;SDS011;34915;52.926;11.116;2022-09-09T13:56:34;2.17;;;1.20;;
49103;SDS011;34915;52.926;11.116;2022-09-09T13:59:01;5.20;;;1.50;;
49103;SDS011;34915;52.926;11.116;2022-09-09T14:01:29;2.70;;;1.50;;
49103;SDS011;34915;52.926;11.116;2022-09-09T14:03:55;2.33;;;1.37;;
49103;SDS011;34915;52.926;11.116;2022-09-09T14:06:24;1.70;;;1.43;;
49103;SDS011;34915;52.926;11.116;2022-09-09T14:08:50;3.63;;;1.80;;
49103;SDS011;34915;52.926;11.116;2022-09-09T14:11:16;2.77;;;1.60;;
49103;SDS011;34915;52.926;11.116;2022-09-09T14:13:43;2.40;;;1.53;;
49103;SDS011;34915;52.926;11.116;2022-09-09T14:16:09;4.87;;;2.00;;
49103;SDS011;34915;52.926;11.116;2022-09-09T14:18:34;3.07;;;1.80;;
49103;SDS011;34915;52.926;11.116;2022-09-09T14:21:00;3.37;;;2.20;;
49103;SDS011;34915;52.926;11.116;2022-09-09T14:23:29;8.57;;;2.17;;
49103;SDS011;34915;52.926;11.116;2022-09-09T14:25:54;4.67;;;2.17;;
49103;SDS011;34915;52.926;11.116;2022-09-09T14:28:20;4.97;;;1.30;;
49103;SDS011;34915;52.926;11.116;2022-09-09T14:30:46;3.53;;;1.60;;
49103;SDS011;34915;52.926;11.116;2022-09-09T14:33:17;5.07;;;1.50;;
49103;SDS011;34915;52.926;11.116;2022-09-09T14:35:42;6.70;;;1.80;;
49103;SDS011;34915;52.926;11.116;2022-09-09T14:38:08;2.47;;;1.50;;
49103;SDS011;34915;52.926;11.116;2022-09-09T14:40:37;4.37;;;1.60;;
49103;SDS011;34915;52.926;11.116;2022-09-09T14:43:04;5.37;;;1.70;;
49103;SDS011;34915;52.926;11.116;2022-09-09T14:45:31;5.37;;;1.77;;
49103;SDS011;34915;52.926;11.116;2022-09-09T14:47:56;4.37;;;1.87;;
49103;SDS011;34915;52.926;11.116;2022-09-09T14:50:22;3.07;;;1.60;;
49103;SDS011;34915;52.926;11.116;2022-09-09T14:52:48;3.83;;;1.60;;
49103;SDS011;34915;52.926;11.116;2022-09-09T14:55:15;3.27;;;1.53;;
49103;SDS011;34915;52.926;11.116;2022-09-09T14:57:41;4.17;;;1.60;;
49103;SDS011;34915;52.926;11.116;2022-09-09T15:00:08;1.80;;;1.70;;
49103;SDS011;34915;52.926;11.116;2022-09-09T15:02:35;5.70;;;1.90;;
49103;SDS011;34915;52.926;11.116;2022-09-09T15:05:01;4.67;;;1.50;;
49103;SDS011;34915;52.926;11.116;2022-09-09T15:07:27;1.70;;;1.60;;
49103;SDS011;34915;52.926;11.116;2022-09-09T15:09:53;2.50;;;1.47;;
49103;SDS011;34915;52.926;11.116;2022-09-09T15:12:19;2.53;;;1.40;;
49103;SDS011;34915;52.926;11.116;2022-09-09T15:14:46;2.87;;;1.47;;
49103;SDS011;34915;52.926;11.116;2022-09-09T15:17:12;3.20;;;1.53;;
49103;SDS011;34915;52.926;11.116;2022-09-09T15:19:38;6.73;;;1.63;;
49103;SDS011;34915;52.926;11.116;2022-09-09T15:22:04;2.90;;;1.57;;
49103;SDS011;34915;52.926;11.116;2022-09-09T15:24:33;4.83;;;1.50;;
49103;SDS011;34915;52.926;11.116;2022-09-09T15:26:59;3.00;;;1.20;;
49103;SDS011;34915;52.926;11.116;2022-09-09T15:29:25;2.23;;;1.27;;
49103;SDS011;34915;52.926;11.116;2022-09-09T15:31:50;1.17;;;0.90;;
49103;SDS011;34915;52.926;11.116;2022-09-09T15:34:16;1.60;;;1.10;;
49103;SDS011;34915;52.926;11.116;2022-09-09T15:36:43;2.17;;;1.40;;
49103;SDS011;34915;52.926;11.116;2022-09-09T15:39:12;5.90;;;1.83;;
49103;SDS011;34915;52.926;11.116;2022-09-09T15:41:42;5.60;;;1.97;;
49103;SDS011;34915;52.926;11.116;2022-09-09T15:44:09;4.37;;;1.30;;
49103;SDS011;34915;52.926;11.116;2022-09-09T15:49:05;8.03;;;1.40;;
49103;SDS011;34915;52.926;11.116;2022-09-09T15:51:46;1.53;;;1.30;;
49103;SDS011;34915;52.926;11.116;2022-09-09T15:54:16;2.73;;;1.50;;
49103;SDS011;34915;52.926;11.116;2022-09-09T15:56:44;2.67;;;1.50;;
49103;SDS011;34915;52.926;11.116;2022-09-09T15:59:11;5.03;;;1.27;;
49103;SDS011;34915;52.926;11.116;2022-09-09T16:01:37;4.57;;;1.63;;
49103;SDS011;34915;52.926;11.116;2022-09-09T16:04:04;1.90;;;1.30;;
49103;SDS011;34915;52.926;11.116;2022-09-09T16:06:30;1.77;;;1.23;;
49103;SDS011;34915;52.926;11.116;2022-09-09T16:08:57;1.37;;;1.20;;
49103;SDS011;34915;52.926;11.116;2022-09-09T16:11:25;4.03;;;1.60;;
49103;SDS011;34915;52.926;11.116;2022-09-09T16:13:54;7.50;;;1.77;;
49103;SDS011;34915;52.926;11.116;2022-09-09T16:16:21;4.33;;;1.30;;
49103;SDS011;34915;52.926;11.116;2022-09-09T16:18:50;4.87;;;1.63;;
49103;SDS011;34915;52.926;11.116;2022-09-09T16:21:18;1.50;;;1.40;;
49103;SDS011;34915;52.926;11.116;2022-09-09T16:23:49;4.63;;;2.20;;
49103;SDS011;34915;52.926;11.116;2022-09-09T16:26:18;2.37;;;1.60;;
49103;SDS011;34915;52.926;11.116;2022-09-09T16:28:48;2.90;;;1.70;;
49103;SDS011;34915;52.926;11.116;2022-09-09T16:31:18;2.17;;;1.60;;
49103;SDS011;34915;52.926;11.116;2022-09-09T16:33:45;5.43;;;1.80;;
49103;SDS011;34915;52.926;11.116;2022-09-09T16:36:12;1.77;;;1.67;;
49103;SDS011;34915;52.926;11.116;2022-09-09T16:39:05;6.13;;;1.70;;
49103;SDS011;34915;52.926;11.116;2022-09-09T16:41:34;2.73;;;1.50;;
49103;SDS011;34915;52.926;11.116;2022-09-09T16:44:00;3.53;;;1.40;;
49103;SDS011;34915;52.926;11.116;2022-09-09T16:46:28;2.33;;;1.97;;
49103;SDS011;34915;52.926;11.116;2022-09-09T16:48:56;2.30;;;1.57;;
49103;SDS011;34915;52.926;11.116;2022-09-09T16:51:35;2.27;;;1.33;;
49103;SDS011;34915;52.926;11.116;2022-09-09T16:54:04;1.40;;;1.30;;
49103;SDS011;34915;52.926;11.116;2022-09-09T16:56:33;2.90;;;1.40;;
49103;SDS011;34915;52.926;11.116;2022-09-09T16:59:02;2.60;;;1.63;;
49103;SDS011;34915;52.926;11.116;2022-09-09T17:01:33;3.43;;;2.03;;
49103;SDS011;34915;52.926;11.116;2022-09-09T17:04:04;5.47;;;3.50;;
49103;SDS011;34915;52.926;11.116;2022-09-09T17:06:32;3.10;;;2.83;;
49103;SDS011;34915;52.926;11.116;2022-09-09T17:09:06;3.17;;;1.60;;
49103;SDS011;34915;52.926;11.116;2022-09-09T17:11:34;1.53;;;1.40;;
49103;SDS011;34915;52.926;11.116;2022-09-09T17:14:00;3.40;;;1.20;;
49103;SDS011;34915;52.926;11.116;2022-09-09T17:16:26;2.77;;;1.60;;
49103;SDS011;34915;52.926;11.116;2022-09-09T17:18:54;28.33;;;22.27;;
49103;SDS011;34915;52.926;11.116;2022-09-09T17:21:21;6.30;;;4.63;;
49103;SDS011;34915;52.926;11.116;2022-09-09T17:23:48;16.50;;;10.60;;
49103;SDS011;34915;52.926;11.116;2022-09-09T17:26:16;4.70;;;2.13;;
49103;SDS011;34915;52.926;11.116;2022-09-09T17:28:43;4.23;;;2.70;;
49103;SDS011;34915;52.926;11.116;2022-09-09T17:31:12;1.57;;;1.43;;
49103;SDS011;34915;52.926;11.116;2022-09-09T17:33:40;1.57;;;1.47;;
49103;SDS011;34915;52.926;11.116;2022-09-09T17:36:09;5.43;;;1.67;;
49103;SDS011;34915;52.926;11.116;2022-09-09T17:38:36;6.73;;;1.30;;